sensor_id;sensor_type;location;lat;lon;timestamp;pressure;altitude;pressure_sealevel;temperature;humidity
39209;BME280;24929;51.982;4.664;2023-02-13T00:00:35;79183.47;;;-143.36;nan
39209;BME280;24929;51.982;4.664;2023-02-13T00:03:01;79195.50;;;-143.36;nan
39209;BME280;24929;51.982;4.664;2023-02-13T00:05:26;79195.50;;;-143.36;nan
39209;BME280;24929;51.982;4.664;2023-02-13T00:07:51;79175.44;;;-143.36;nan
39209;BME280;24929;51.982;4.664;2023-02-13T00:10:17;79111.16;;;-143.36;nan
39209;BME280;24929;51.982;4.664;2023-02-13T00:12:42;79151.34;;;-143.36;nan
39209;BME280;24929;51.982;4.664;2023-02-13T00:15:08;79018.81;;;-143.36;nan
39209;BME280;24929;51.982;4.664;2023-02-13T00:17:34;79095.09;;;-143.36;nan
39209;BME280;24929;51.982;4.664;2023-02-13T00:19:59;79089.09;;;-143.36;nan
39209;BME280;24929;51.982;4.664;2023-02-13T00:22:25;79046.91;;;-143.36;nan
39209;BME280;24929;51.982;4.664;2023-02-13T00:24:50;79087.06;;;-143.36;nan
39209;BME280;24929;51.982;4.664;2023-02-13T00:27:15;79079.03;;;-143.36;nan
39209;BME280;24929;51.982;4.664;2023-02-13T00:29:41;79091.09;;;-143.36;nan
39209;BME280;24929;51.982;4.664;2023-02-13T00:32:06;79060.97;;;-143.36;nan
39209;BME280;24929;51.982;4.664;2023-02-13T00:34:32;79077.03;;;-143.36;nan
39209;BME280;24929;51.982;4.664;2023-02-13T00:36:57;79048.91;;;-143.36;nan
39209;BME280;24929;51.982;4.664;2023-02-13T00:39:22;79263.78;;;-143.36;nan
39209;BME280;24929;51.982;4.664;2023-02-13T00:41:48;79313.97;;;-143.36;nan
39209;BME280;24929;51.982;4.664;2023-02-13T00:44:13;79183.47;;;-143.36;nan
39209;BME280;24929;51.982;4.664;2023-02-13T00:46:38;79362.19;;;-143.36;nan
39209;BME280;24929;51.982;4.664;2023-02-13T00:49:04;79410.38;;;-143.36;nan
39209;BME280;24929;51.982;4.664;2023-02-13T00:51:30;79293.91;;;-143.36;nan
39209;BME280;24929;51.982;4.664;2023-02-13T00:53:55;79241.69;;;-143.36;nan
39209;BME280;24929;51.982;4.664;2023-02-13T00:56:20;79227.63;;;-143.36;nan
39209;BME280;24929;51.982;4.664;2023-02-13T00:58:46;79295.91;;;-143.36;nan
39209;BME280;24929;51.982;4.664;2023-02-13T01:01:11;79062.97;;;-143.36;nan
39209;BME280;24929;51.982;4.664;2023-02-13T01:03:37;79095.09;;;-143.36;nan
39209;BME280;24929;51.982;4.664;2023-02-13T01:06:03;78990.69;;;-143.36;nan
39209;BME280;24929;51.982;4.664;2023-02-13T01:08:28;79036.88;;;-143.36;nan
39209;BME280;24929;51.982;4.664;2023-02-13T01:10:54;78976.63;;;-143.36;nan
39209;BME280;24929;51.982;4.664;2023-02-13T01:13:20;78982.66;;;-143.36;nan
39209;BME280;24929;51.982;4.664;2023-02-13T01:15:46;79060.97;;;-143.36;nan
39209;BME280;24929;51.982;4.664;2023-02-13T01:18:16;78952.53;;;-143.36;nan
39209;BME280;24929;51.982;4.664;2023-02-13T01:20:43;78952.53;;;-143.36;nan
39209;BME280;24929;51.982;4.664;2023-02-13T01:23:09;78942.50;;;-143.36;nan
39209;BME280;24929;51.982;4.664;2023-02-13T01:25:37;79044.91;;;-143.36;nan
39209;BME280;24929;51.982;4.664;2023-02-13T01:28:03;79032.84;;;-143.36;nan
39209;BME280;24929;51.982;4.664;2023-02-13T01:30:28;78990.69;;;-143.36;nan
39209;BME280;24929;51.982;4.664;2023-02-13T01:32:54;78998.72;;;-143.36;nan
39209;BME280;24929;51.982;4.664;2023-02-13T01:35:19;79058.97;;;-143.36;nan
39209;BME280;24929;51.982;4.664;2023-02-13T01:37:44;79185.47;;;-143.36;nan
39209;BME280;24929;51.982;4.664;2023-02-13T01:40:12;79175.44;;;-143.36;nan
39209;BME280;24929;51.982;4.664;2023-02-13T01:42:37;79376.25;;;-143.36;nan
39209;BME280;24929;51.982;4.664;2023-02-13T01:45:33;79350.13;;;-143.36;nan
39209;BME280;24929;51.982;4.664;2023-02-13T01:48:15;79101.13;;;-143.36;nan
39209;BME280;24929;51.982;4.664;2023-02-13T01:50:55;78902.34;;;-143.36;nan
39209;BME280;24929;51.982;4.664;2023-02-13T01:53:29;78858.16;;;-143.36;nan
39209;BME280;24929;51.982;4.664;2023-02-13T01:56:00;78856.16;;;-143.36;nan
39209;BME280;24929;51.982;4.664;2023-02-13T01:58:31;78878.25;;;-143.36;nan
39209;BME280;24929;51.982;4.664;2023-02-13T02:00:58;78856.16;;;-143.36;nan
39209;BME280;24929;51.982;4.664;2023-02-13T02:03:40;78914.38;;;-143.36;nan
39209;BME280;24929;51.982;4.664;2023-02-13T02:06:08;78809.97;;;-143.36;nan
39209;BME280;24929;51.982;4.664;2023-02-13T02:08:37;78916.41;;;-143.36;nan
39209;BME280;24929;51.982;4.664;2023-02-13T02:11:14;78982.66;;;-143.36;nan
39209;BME280;24929;51.982;4.664;2023-02-13T02:13:42;78974.63;;;-143.36;nan
39209;BME280;24929;51.982;4.664;2023-02-13T02:16:08;78972.63;;;-143.36;nan
39209;BME280;24929;51.982;4.664;2023-02-13T02:18:34;79004.75;;;-143.36;nan
39209;BME280;24929;51.982;4.664;2023-02-13T02:34:07;79006.75;;;-143.36;nan
39209;BME280;24929;51.982;4.664;2023-02-13T02:37:10;79022.81;;;-143.36;nan
39209;BME280;24929;51.982;4.664;2023-02-13T02:45:36;79097.13;;;-143.36;nan
39209;BME280;24929;51.982;4.664;2023-02-13T02:51:02;79207.56;;;-143.36;nan
39209;BME280;24929;51.982;4.664;2023-02-13T02:53:42;79311.97;;;-143.36;nan
39209;BME280;24929;51.982;4.664;2023-02-13T02:56:22;79185.47;;;-143.36;nan
39209;BME280;24929;51.982;4.664;2023-02-13T02:59:05;79091.09;;;-143.36;nan
39209;BME280;24929;51.982;4.664;2023-02-13T03:01:52;78920.41;;;-143.36;nan
39209;BME280;24929;51.982;4.664;2023-02-13T03:04:40;79054.94;;;-143.36;nan
39209;BME280;24929;51.982;4.664;2023-02-13T03:07:25;79326.03;;;-143.36;nan
39209;BME280;24929;51.982;4.664;2023-02-13T03:09:55;79215.59;;;-143.36;nan
39209;BME280;24929;51.982;4.664;2023-02-13T03:12:48;78944.50;;;-143.36;nan
39209;BME280;24929;51.982;4.664;2023-02-13T03:15:37;79257.75;;;-143.36;nan
39209;BME280;24929;51.982;4.664;2023-02-13T03:18:23;79079.03;;;-143.36;nan
39209;BME280;24929;51.982;4.664;2023-02-13T03:24:21;78930.44;;;-143.36;nan
39209;BME280;24929;51.982;4.664;2023-02-13T03:26:57;78994.72;;;-143.36;nan
39209;BME280;24929;51.982;4.664;2023-02-13T03:29:57;78904.34;;;-143.36;nan
39209;BME280;24929;51.982;4.664;2023-02-13T03:35:36;78972.63;;;-143.36;nan
39209;BME280;24929;51.982;4.664;2023-02-13T03:38:28;78892.31;;;-143.36;nan
39209;BME280;24929;51.982;4.664;2023-02-13T03:41:37;79002.75;;;-143.36;nan
39209;BME280;24929;51.982;4.664;2023-02-13T03:46:17;79034.88;;;-143.36;nan
39209;BME280;24929;51.982;4.664;2023-02-13T03:48:44;79004.75;;;-143.36;nan
39209;BME280;24929;51.982;4.664;2023-02-13T03:51:42;78926.44;;;-143.36;nan
39209;BME280;24929;51.982;4.664;2023-02-13T03:54:20;78902.34;;;-143.36;nan
39209;BME280;24929;51.982;4.664;2023-02-13T03:57:05;79271.81;;;-143.36;nan
39209;BME280;24929;51.982;4.664;2023-02-13T03:59:50;79336.06;;;-143.36;nan
39209;BME280;24929;51.982;4.664;2023-02-13T04:02:19;79064.97;;;-143.36;nan
39209;BME280;24929;51.982;4.664;2023-02-13T04:04:53;79020.81;;;-143.36;nan
39209;BME280;24929;51.982;4.664;2023-02-13T04:07:23;78930.44;;;-143.36;nan
39209;BME280;24929;51.982;4.664;2023-02-13T04:09:59;79030.84;;;-143.36;nan
39209;BME280;24929;51.982;4.664;2023-02-13T04:16:01;79085.06;;;-143.36;nan
39209;BME280;24929;51.982;4.664;2023-02-13T04:18:31;79064.97;;;-143.36;nan
39209;BME280;24929;51.982;4.664;2023-02-13T04:21:05;79269.81;;;-143.36;nan
39209;BME280;24929;51.982;4.664;2023-02-13T04:23:31;79199.53;;;-143.36;nan
39209;BME280;24929;51.982;4.664;2023-02-13T04:26:03;78952.53;;;-143.36;nan
39209;BME280;24929;51.982;4.664;2023-02-13T04:28:30;79143.28;;;-143.36;nan
39209;BME280;24929;51.982;4.664;2023-02-13T04:30:55;79032.84;;;-143.36;nan
39209;BME280;24929;51.982;4.664;2023-02-13T04:33:22;79038.88;;;-143.36;nan
39209;BME280;24929;51.982;4.664;2023-02-13T04:35:47;78938.47;;;-143.36;nan
39209;BME280;24929;51.982;4.664;2023-02-13T04:38:12;78938.47;;;-143.36;nan
39209;BME280;24929;51.982;4.664;2023-02-13T04:40:38;78884.28;;;-143.36;nan
39209;BME280;24929;51.982;4.664;2023-02-13T04:43:03;78884.28;;;-143.36;nan
39209;BME280;24929;51.982;4.664;2023-02-13T04:45:28;78876.25;;;-143.36;nan
39209;BME280;24929;51.982;4.664;2023-02-13T04:47:55;78809.97;;;-143.36;nan
39209;BME280;24929;51.982;4.664;2023-02-13T04:50:21;78842.09;;;-143.36;nan
39209;BME280;24929;51.982;4.664;2023-02-13T04:52:46;78854.16;;;-143.36;nan
39209;BME280;24929;51.982;4.664;2023-02-13T04:55:12;78868.22;;;-143.36;nan
39209;BME280;24929;51.982;4.664;2023-02-13T04:57:38;78898.31;;;-143.36;nan
39209;BME280;24929;51.982;4.664;2023-02-13T05:00:05;78822.03;;;-143.36;nan
39209;BME280;24929;51.982;4.664;2023-02-13T05:02:31;78840.09;;;-143.36;nan
39209;BME280;24929;51.982;4.664;2023-02-13T05:04:56;78846.13;;;-143.36;nan
39209;BME280;24929;51.982;4.664;2023-02-13T05:07:21;78812.00;;;-143.36;nan
39209;BME280;24929;51.982;4.664;2023-02-13T05:09:47;78826.03;;;-143.36;nan
39209;BME280;24929;51.982;4.664;2023-02-13T05:12:12;78812.00;;;-143.36;nan
39209;BME280;24929;51.982;4.664;2023-02-13T05:14:37;78779.84;;;-143.36;nan
39209;BME280;24929;51.982;4.664;2023-02-13T05:17:03;78828.03;;;-143.36;nan
39209;BME280;24929;51.982;4.664;2023-02-13T05:19:28;78838.09;;;-143.36;nan
39209;BME280;24929;51.982;4.664;2023-02-13T05:21:53;78836.06;;;-143.36;nan
39209;BME280;24929;51.982;4.664;2023-02-13T05:24:37;78868.22;;;-143.36;nan
39209;BME280;24929;51.982;4.664;2023-02-13T05:27:04;78890.28;;;-143.36;nan
39209;BME280;24929;51.982;4.664;2023-02-13T05:29:29;78838.09;;;-143.36;nan
39209;BME280;24929;51.982;4.664;2023-02-13T05:31:56;78787.88;;;-143.36;nan
39209;BME280;24929;51.982;4.664;2023-02-13T05:34:23;78812.00;;;-143.36;nan
39209;BME280;24929;51.982;4.664;2023-02-13T05:36:49;78854.16;;;-143.36;nan
39209;BME280;24929;51.982;4.664;2023-02-13T05:39:15;78828.03;;;-143.36;nan
39209;BME280;24929;51.982;4.664;2023-02-13T05:41:44;78795.91;;;-143.36;nan
39209;BME280;24929;51.982;4.664;2023-02-13T05:44:10;78850.13;;;-143.36;nan
39209;BME280;24929;51.982;4.664;2023-02-13T05:46:37;78830.06;;;-143.36;nan
39209;BME280;24929;51.982;4.664;2023-02-13T05:49:03;78852.16;;;-143.36;nan
39209;BME280;24929;51.982;4.664;2023-02-13T05:51:29;78838.09;;;-143.36;nan
39209;BME280;24929;51.982;4.664;2023-02-13T05:53:54;78884.28;;;-143.36;nan
39209;BME280;24929;51.982;4.664;2023-02-13T05:56:20;78809.97;;;-143.36;nan
39209;BME280;24929;51.982;4.664;2023-02-13T05:58:45;78832.06;;;-143.36;nan
39209;BME280;24929;51.982;4.664;2023-02-13T06:01:11;78805.97;;;-143.36;nan
39209;BME280;24929;51.982;4.664;2023-02-13T06:03:36;78862.19;;;-143.36;nan
39209;BME280;24929;51.982;4.664;2023-02-13T06:06:04;78852.16;;;-143.36;nan
39209;BME280;24929;51.982;4.664;2023-02-13T06:08:29;78816.00;;;-143.36;nan
39209;BME280;24929;51.982;4.664;2023-02-13T06:10:55;78812.00;;;-143.36;nan
39209;BME280;24929;51.982;4.664;2023-02-13T06:13:20;78840.09;;;-143.36;nan
39209;BME280;24929;51.982;4.664;2023-02-13T06:15:46;78818.00;;;-143.36;nan
39209;BME280;24929;51.982;4.664;2023-02-13T06:18:11;78828.03;;;-143.36;nan
39209;BME280;24929;51.982;4.664;2023-02-13T06:20:37;78787.88;;;-143.36;nan
39209;BME280;24929;51.982;4.664;2023-02-13T06:23:03;78824.03;;;-143.36;nan
39209;BME280;24929;51.982;4.664;2023-02-13T06:25:28;78826.03;;;-143.36;nan
39209;BME280;24929;51.982;4.664;2023-02-13T06:27:54;78826.03;;;-143.36;nan
39209;BME280;24929;51.982;4.664;2023-02-13T06:30:19;78799.94;;;-143.36;nan
39209;BME280;24929;51.982;4.664;2023-02-13T06:39:28;78785.88;;;-143.36;nan
39209;BME280;24929;51.982;4.664;2023-02-13T06:41:54;78820.03;;;-143.36;nan
39209;BME280;24929;51.982;4.664;2023-02-13T06:44:19;78816.00;;;-143.36;nan
39209;BME280;24929;51.982;4.664;2023-02-13T06:46:44;78850.13;;;-143.36;nan
39209;BME280;24929;51.982;4.664;2023-02-13T06:49:10;78848.13;;;-143.36;nan
39209;BME280;24929;51.982;4.664;2023-02-13T06:51:35;78860.19;;;-143.36;nan
39209;BME280;24929;51.982;4.664;2023-02-13T06:54:00;78848.13;;;-143.36;nan
39209;BME280;24929;51.982;4.664;2023-02-13T06:56:26;78852.16;;;-143.36;nan
39209;BME280;24929;51.982;4.664;2023-02-13T06:58:52;78860.19;;;-143.36;nan
39209;BME280;24929;51.982;4.664;2023-02-13T07:01:17;78838.09;;;-143.36;nan
39209;BME280;24929;51.982;4.664;2023-02-13T07:03:42;78904.34;;;-143.36;nan
39209;BME280;24929;51.982;4.664;2023-02-13T07:06:08;78870.22;;;-143.36;nan
39209;BME280;24929;51.982;4.664;2023-02-13T07:08:33;78882.25;;;-143.36;nan
39209;BME280;24929;51.982;4.664;2023-02-13T07:10:59;78852.16;;;-143.36;nan
39209;BME280;24929;51.982;4.664;2023-02-13T07:13:24;78880.25;;;-143.36;nan
39209;BME280;24929;51.982;4.664;2023-02-13T07:15:49;78878.25;;;-143.36;nan
39209;BME280;24929;51.982;4.664;2023-02-13T07:18:15;78868.22;;;-143.36;nan
39209;BME280;24929;51.982;4.664;2023-02-13T07:20:40;78866.19;;;-143.36;nan
39209;BME280;24929;51.982;4.664;2023-02-13T07:23:06;78888.28;;;-143.36;nan
39209;BME280;24929;51.982;4.664;2023-02-13T07:25:32;78888.28;;;-143.36;nan
39209;BME280;24929;51.982;4.664;2023-02-13T07:28:05;78872.22;;;-143.36;nan
39209;BME280;24929;51.982;4.664;2023-02-13T07:30:31;79205.53;;;-143.36;nan
39209;BME280;24929;51.982;4.664;2023-02-13T07:32:59;78940.50;;;-143.36;nan
39209;BME280;24929;51.982;4.664;2023-02-13T07:35:25;78916.41;;;-143.36;nan
39209;BME280;24929;51.982;4.664;2023-02-13T07:37:52;78848.13;;;-143.36;nan
39209;BME280;24929;51.982;4.664;2023-02-13T07:40:20;78858.16;;;-143.36;nan
39209;BME280;24929;51.982;4.664;2023-02-13T07:42:47;78878.25;;;-143.36;nan
39209;BME280;24929;51.982;4.664;2023-02-13T07:45:13;78894.31;;;-143.36;nan
39209;BME280;24929;51.982;4.664;2023-02-13T07:47:40;78978.66;;;-143.36;nan
39209;BME280;24929;51.982;4.664;2023-02-13T07:50:07;79018.81;;;-143.36;nan
39209;BME280;24929;51.982;4.664;2023-02-13T07:52:33;79022.81;;;-143.36;nan
39209;BME280;24929;51.982;4.664;2023-02-13T07:54:59;78908.38;;;-143.36;nan
39209;BME280;24929;51.982;4.664;2023-02-13T07:57:24;78902.34;;;-143.36;nan
39209;BME280;24929;51.982;4.664;2023-02-13T07:59:50;78910.38;;;-143.36;nan
39209;BME280;24929;51.982;4.664;2023-02-13T08:02:15;78922.41;;;-143.36;nan
39209;BME280;24929;51.982;4.664;2023-02-13T08:04:41;78890.28;;;-143.36;nan
39209;BME280;24929;51.982;4.664;2023-02-13T08:07:11;78886.28;;;-143.36;nan
39209;BME280;24929;51.982;4.664;2023-02-13T08:09:36;78886.28;;;-143.36;nan
39209;BME280;24929;51.982;4.664;2023-02-13T08:12:21;78904.34;;;-143.36;nan
39209;BME280;24929;51.982;4.664;2023-02-13T08:25:18;79008.75;;;-143.36;nan
39209;BME280;24929;51.982;4.664;2023-02-13T08:27:44;79127.22;;;-143.36;nan
39209;BME280;24929;51.982;4.664;2023-02-13T08:30:10;78992.69;;;-143.36;nan
39209;BME280;24929;51.982;4.664;2023-02-13T08:32:36;78948.53;;;-143.36;nan
39209;BME280;24929;51.982;4.664;2023-02-13T08:35:01;78910.38;;;-143.36;nan
39209;BME280;24929;51.982;4.664;2023-02-13T08:37:27;78964.59;;;-143.36;nan
39209;BME280;24929;51.982;4.664;2023-02-13T08:39:52;79038.88;;;-143.36;nan
39209;BME280;24929;51.982;4.664;2023-02-13T08:42:21;78900.34;;;-143.36;nan
39209;BME280;24929;51.982;4.664;2023-02-13T08:44:46;78970.59;;;-143.36;nan
39209;BME280;24929;51.982;4.664;2023-02-13T08:47:11;78944.50;;;-143.36;nan
39209;BME280;24929;51.982;4.664;2023-02-13T08:52:58;79038.88;;;-143.36;nan
39209;BME280;24929;51.982;4.664;2023-02-13T08:55:25;79193.50;;;-143.36;nan
39209;BME280;24929;51.982;4.664;2023-02-13T08:57:50;79087.06;;;-143.36;nan
39209;BME280;24929;51.982;4.664;2023-02-13T09:00:16;79006.75;;;-143.36;nan
39209;BME280;24929;51.982;4.664;2023-02-13T09:02:41;79293.91;;;-143.36;nan
39209;BME280;24929;51.982;4.664;2023-02-13T09:05:06;79010.78;;;-143.36;nan
39209;BME280;24929;51.982;4.664;2023-02-13T09:07:32;79253.75;;;-143.36;nan
39209;BME280;24929;51.982;4.664;2023-02-13T09:09:57;79193.50;;;-143.36;nan
39209;BME280;24929;51.982;4.664;2023-02-13T09:12:22;79167.41;;;-143.36;nan
39209;BME280;24929;51.982;4.664;2023-02-13T09:14:48;78956.56;;;-143.36;nan
39209;BME280;24929;51.982;4.664;2023-02-13T09:17:16;78972.63;;;-143.36;nan
39209;BME280;24929;51.982;4.664;2023-02-13T09:19:43;79087.06;;;-143.36;nan
39209;BME280;24929;51.982;4.664;2023-02-13T09:22:09;79318.00;;;-143.36;nan
39209;BME280;24929;51.982;4.664;2023-02-13T09:24:37;79163.38;;;-143.36;nan
39209;BME280;24929;51.982;4.664;2023-02-13T09:27:03;79163.38;;;-143.36;nan
39209;BME280;24929;51.982;4.664;2023-02-13T09:29:33;79133.25;;;-143.36;nan
39209;BME280;24929;51.982;4.664;2023-02-13T09:32:03;79131.25;;;-143.36;nan
39209;BME280;24929;51.982;4.664;2023-02-13T09:34:31;79233.66;;;-143.36;nan
39209;BME280;24929;51.982;4.664;2023-02-13T09:36:57;79165.38;;;-143.36;nan
39209;BME280;24929;51.982;4.664;2023-02-13T09:39:22;78934.47;;;-143.36;nan
39209;BME280;24929;51.982;4.664;2023-02-13T09:41:49;78996.72;;;-143.36;nan
39209;BME280;24929;51.982;4.664;2023-02-13T09:44:26;78882.25;;;-143.36;nan
39209;BME280;24929;51.982;4.664;2023-02-13T09:47:13;78880.25;;;-143.36;nan
39209;BME280;24929;51.982;4.664;2023-02-13T09:49:48;78856.16;;;-143.36;nan
39209;BME280;24929;51.982;4.664;2023-02-13T09:52:15;78898.31;;;-143.36;nan
39209;BME280;24929;51.982;4.664;2023-02-13T09:54:40;78866.19;;;-143.36;nan
39209;BME280;24929;51.982;4.664;2023-02-13T09:57:28;78838.09;;;-143.36;nan
39209;BME280;24929;51.982;4.664;2023-02-13T10:02:40;78906.34;;;-143.36;nan
39209;BME280;24929;51.982;4.664;2023-02-13T10:14:30;78691.50;;;-143.36;nan
39209;BME280;24929;51.982;4.664;2023-02-13T10:20:32;78689.50;;;-143.36;nan
39209;BME280;24929;51.982;4.664;2023-02-13T10:23:23;78645.34;;;-143.36;nan
39209;BME280;24929;51.982;4.664;2023-02-13T10:26:03;78615.22;;;-143.36;nan
39209;BME280;24929;51.982;4.664;2023-02-13T10:28:32;78687.50;;;-143.36;nan
39209;BME280;24929;51.982;4.664;2023-02-13T10:31:13;78661.41;;;-143.36;nan
39209;BME280;24929;51.982;4.664;2023-02-13T10:33:46;78655.38;;;-143.36;nan
39209;BME280;24929;51.982;4.664;2023-02-13T10:36:33;78661.41;;;-143.36;nan
39209;BME280;24929;51.982;4.664;2023-02-13T10:44:33;78559.00;;;-143.36;nan
39209;BME280;24929;51.982;4.664;2023-02-13T10:57:59;78514.84;;;-143.36;nan
39209;BME280;24929;51.982;4.664;2023-02-13T11:00:26;78546.97;;;-143.36;nan
39209;BME280;24929;51.982;4.664;2023-02-13T11:02:56;78536.91;;;-143.36;nan
39209;BME280;24929;51.982;4.664;2023-02-13T11:05:36;78546.97;;;-143.36;nan
39209;BME280;24929;51.982;4.664;2023-02-13T11:08:04;78546.97;;;-143.36;nan
39209;BME280;24929;51.982;4.664;2023-02-13T11:13:42;78542.94;;;-143.36;nan
39209;BME280;24929;51.982;4.664;2023-02-13T11:16:08;78528.88;;;-143.36;nan
39209;BME280;24929;51.982;4.664;2023-02-13T11:18:39;78557.00;;;-143.36;nan
39209;BME280;24929;51.982;4.664;2023-02-13T11:21:19;78601.16;;;-143.36;nan
39209;BME280;24929;51.982;4.664;2023-02-13T11:23:50;78573.06;;;-143.36;nan
39209;BME280;24929;51.982;4.664;2023-02-13T11:26:35;78663.41;;;-143.36;nan
39209;BME280;24929;51.982;4.664;2023-02-13T11:29:05;78440.56;;;-143.36;nan
39209;BME280;24929;51.982;4.664;2023-02-13T11:31:40;78575.06;;;-143.36;nan
39209;BME280;24929;51.982;4.664;2023-02-13T11:34:26;78486.72;;;-143.36;nan
39209;BME280;24929;51.982;4.664;2023-02-13T11:36:54;78460.63;;;-143.36;nan
39209;BME280;24929;51.982;4.664;2023-02-13T11:39:31;78516.84;;;-143.36;nan
39209;BME280;24929;51.982;4.664;2023-02-13T11:41:56;78540.94;;;-143.36;nan
39209;BME280;24929;51.982;4.664;2023-02-13T11:46:53;78436.53;;;-143.36;nan
39209;BME280;24929;51.982;4.664;2023-02-13T11:49:23;78585.09;;;-143.36;nan
39209;BME280;24929;51.982;4.664;2023-02-13T11:51:52;78488.72;;;-143.36;nan
39209;BME280;24929;51.982;4.664;2023-02-13T11:56:49;78627.25;;;-143.36;nan
39209;BME280;24929;51.982;4.664;2023-02-13T11:59:14;78593.13;;;-143.36;nan
39209;BME280;24929;51.982;4.664;2023-02-13T12:01:43;78514.84;;;-143.36;nan
39209;BME280;24929;51.982;4.664;2023-02-13T12:04:17;78394.38;;;-143.36;nan
39209;BME280;24929;51.982;4.664;2023-02-13T12:07:25;78294.00;;;-143.36;nan
39209;BME280;24929;51.982;4.664;2023-02-13T12:15:36;78324.09;;;-143.36;nan
39209;BME280;24929;51.982;4.664;2023-02-13T12:18:12;78569.03;;;-143.36;nan
39209;BME280;24929;51.982;4.664;2023-02-13T12:21:08;78360.25;;;-143.36;nan
39209;BME280;24929;51.982;4.664;2023-02-13T12:24:10;78344.19;;;-143.36;nan
39209;BME280;24929;51.982;4.664;2023-02-13T12:26:41;78346.19;;;-143.36;nan
39209;BME280;24929;51.982;4.664;2023-02-13T12:32:19;78304.03;;;-143.36;nan
39209;BME280;24929;51.982;4.664;2023-02-13T13:01:14;78251.84;;;-143.36;nan
39209;BME280;24929;51.982;4.664;2023-02-13T13:15:16;78221.72;;;-143.36;nan
39209;BME280;24929;51.982;4.664;2023-02-13T13:17:25;78205.66;;;-143.36;nan
39209;BME280;24929;51.982;4.664;2023-02-13T13:27:57;78275.91;;;-143.36;nan
39209;BME280;24929;51.982;4.664;2023-02-13T13:30:31;78249.81;;;-143.36;nan
39209;BME280;24929;51.982;4.664;2023-02-13T13:33:02;78450.59;;;-143.36;nan
39209;BME280;24929;51.982;4.664;2023-02-13T13:35:29;78354.22;;;-143.36;nan
39209;BME280;24929;51.982;4.664;2023-02-13T13:37:59;78203.66;;;-143.36;nan
39209;BME280;24929;51.982;4.664;2023-02-13T13:43:19;78129.38;;;-143.36;nan
39209;BME280;24929;51.982;4.664;2023-02-13T13:46:10;78342.19;;;-143.36;nan
39209;BME280;24929;51.982;4.664;2023-02-13T13:51:31;78109.28;;;-143.36;nan
39209;BME280;24929;51.982;4.664;2023-02-13T13:56:26;78093.22;;;-143.36;nan
39209;BME280;24929;51.982;4.664;2023-02-13T13:58:51;78149.44;;;-143.36;nan
39209;BME280;24929;51.982;4.664;2023-02-13T14:01:29;78195.63;;;-143.36;nan
39209;BME280;24929;51.982;4.664;2023-02-13T14:04:00;78436.53;;;-143.36;nan
39209;BME280;24929;51.982;4.664;2023-02-13T14:09:41;78464.63;;;-143.36;nan
39209;BME280;24929;51.982;4.664;2023-02-13T14:14:58;78251.84;;;-143.36;nan
39209;BME280;24929;51.982;4.664;2023-02-13T14:20:21;78528.88;;;-143.36;nan
39209;BME280;24929;51.982;4.664;2023-02-13T14:22:48;78567.03;;;-143.36;nan
39209;BME280;24929;51.982;4.664;2023-02-13T14:25:26;78201.66;;;-143.36;nan
39209;BME280;24929;51.982;4.664;2023-02-13T14:27:58;78181.56;;;-143.36;nan
39209;BME280;24929;51.982;4.664;2023-02-13T14:30:32;78227.75;;;-143.36;nan
39209;BME280;24929;51.982;4.664;2023-02-13T14:33:06;78149.44;;;-143.36;nan
39209;BME280;24929;51.982;4.664;2023-02-13T14:35:34;78115.31;;;-143.36;nan
39209;BME280;24929;51.982;4.664;2023-02-13T14:38:06;78137.41;;;-143.36;nan
39209;BME280;24929;51.982;4.664;2023-02-13T14:40:45;78109.28;;;-143.36;nan
39209;BME280;24929;51.982;4.664;2023-02-13T14:46:34;78037.03;;;-143.36;nan
39209;BME280;24929;51.982;4.664;2023-02-13T14:49:28;77982.81;;;-143.36;nan
39209;BME280;24929;51.982;4.664;2023-02-13T14:51:56;78002.91;;;-143.36;nan
39209;BME280;24929;51.982;4.664;2023-02-13T14:54:46;78020.97;;;-143.36;nan
39209;BME280;24929;51.982;4.664;2023-02-13T14:59:47;78229.75;;;-143.36;nan
39209;BME280;24929;51.982;4.664;2023-02-13T15:05:36;78296.00;;;-143.36;nan
39209;BME280;24929;51.982;4.664;2023-02-13T15:08:13;78348.19;;;-143.36;nan
39209;BME280;24929;51.982;4.664;2023-02-13T15:13:31;78283.94;;;-143.36;nan
39209;BME280;24929;51.982;4.664;2023-02-13T15:16:19;78117.31;;;-143.36;nan
39209;BME280;24929;51.982;4.664;2023-02-13T15:18:47;78153.47;;;-143.36;nan
39209;BME280;24929;51.982;4.664;2023-02-13T15:21:16;78119.34;;;-143.36;nan
39209;BME280;24929;51.982;4.664;2023-02-13T15:23:43;78161.50;;;-143.36;nan
39209;BME280;24929;51.982;4.664;2023-02-13T15:26:08;78223.72;;;-143.36;nan
39209;BME280;24929;51.982;4.664;2023-02-13T15:28:58;78135.41;;;-143.36;nan
39209;BME280;24929;51.982;4.664;2023-02-13T15:31:29;78310.06;;;-143.36;nan
39209;BME280;24929;51.982;4.664;2023-02-13T15:33:57;78412.44;;;-143.36;nan
39209;BME280;24929;51.982;4.664;2023-02-13T15:36:24;78261.88;;;-143.36;nan
39209;BME280;24929;51.982;4.664;2023-02-13T15:39:01;78271.91;;;-143.36;nan
39209;BME280;24929;51.982;4.664;2023-02-13T15:41:41;78233.75;;;-143.36;nan
39209;BME280;24929;51.982;4.664;2023-02-13T15:44:15;78167.50;;;-143.36;nan
39209;BME280;24929;51.982;4.664;2023-02-13T15:46:41;78201.66;;;-143.36;nan
39209;BME280;24929;51.982;4.664;2023-02-13T15:49:17;78123.34;;;-143.36;nan
39209;BME280;24929;51.982;4.664;2023-02-13T15:51:44;78225.72;;;-143.36;nan
39209;BME280;24929;51.982;4.664;2023-02-13T15:54:27;78203.66;;;-143.36;nan
39209;BME280;24929;51.982;4.664;2023-02-13T15:56:56;78215.69;;;-143.36;nan
39209;BME280;24929;51.982;4.664;2023-02-13T15:59:24;78203.66;;;-143.36;nan
39209;BME280;24929;51.982;4.664;2023-02-13T16:01:52;78384.34;;;-143.36;nan
39209;BME280;24929;51.982;4.664;2023-02-13T16:04:18;78336.16;;;-143.36;nan
39209;BME280;24929;51.982;4.664;2023-02-13T16:06:45;78287.97;;;-143.36;nan
39209;BME280;24929;51.982;4.664;2023-02-13T16:09:34;78129.38;;;-143.36;nan
39209;BME280;24929;51.982;4.664;2023-02-13T16:12:06;78207.66;;;-143.36;nan
39209;BME280;24929;51.982;4.664;2023-02-13T16:14:47;78147.44;;;-143.36;nan